Time;durP1;ratioP1;P1;durP2;ratioP2;P2;SDS_P1;SDS_P2;PMS_P1;PMS_P2;Temp;Humidity;BMP_temperature;BMP_pressure;BME280_temperature;BME280_humidity;BME280_pressure;Samples;Min_cycle;Max_cycle;Signal;HPM_P1;HPM_P2
2024/01/05 00:01:38;;;;;;;15.77;10.70;;;2.80;99.90;;;;;;5125114;27;20036;-77
2024/01/05 00:04:04;;;;;;;14.30;10.50;;;2.10;99.90;;;;;;5103510;28;20551;-76
2024/01/05 00:06:30;;;;;;;18.23;10.95;;;2.10;99.90;;;;;;5124808;28;20040;-75
2024/01/05 00:08:56;;;;;;;18.60;11.48;;;2.10;99.90;;;;;;5102912;27;20096;-76
2024/01/05 00:11:22;;;;;;;17.83;10.32;;;2.10;99.90;;;;;;5116837;28;20047;-76
2024/01/05 00:13:48;;;;;;;12.75;10.23;;;2.10;99.90;;;;;;5099312;28;20043;-76
2024/01/05 00:16:21;;;;;;;15.43;10.85;;;2.10;99.90;;;;;;5099008;28;20051;-77
2024/01/05 00:18:48;;;;;;;16.80;10.70;;;2.10;99.90;;;;;;5112521;28;20062;-76
2024/01/05 00:21:20;;;;;;;15.32;11.07;;;2.00;99.90;;;;;;5111875;27;20035;-77
2024/01/05 00:23:47;;;;;;;16.55;10.88;;;2.00;99.90;;;;;;5132658;27;20043;-77
2024/01/05 00:26:12;;;;;;;17.73;11.10;;;2.00;99.90;;;;;;5118913;27;20140;-75
2024/01/05 00:28:38;;;;;;;18.92;11.75;;;2.00;99.90;;;;;;5117519;28;20052;-76
2024/01/05 00:31:04;;;;;;;15.80;11.95;;;2.00;99.90;;;;;;5128988;27;20036;-77
2024/01/05 00:33:30;;;;;;;17.02;12.50;;;1.90;99.90;;;;;;5126307;28;20039;-76
2024/01/05 00:35:56;;;;;;;17.98;12.75;;;2.10;99.90;;;;;;5128782;27;20126;-77
2024/01/05 00:38:21;;;;;;;18.40;11.45;;;1.90;99.90;;;;;;5130106;28;20135;-77
2024/01/05 00:40:47;;;;;;;18.80;12.88;;;2.00;99.90;;;;;;5119512;28;20497;-77
2024/01/05 00:43:13;;;;;;;18.15;13.25;;;1.90;99.90;;;;;;5126272;27;20031;-77
2024/01/05 00:45:38;;;;;;;20.08;14.38;;;1.90;99.90;;;;;;5130262;27;20090;-76
2024/01/05 00:48:05;;;;;;;23.20;14.00;;;1.90;99.90;;;;;;5118741;28;20040;-76
2024/01/05 00:50:30;;;;;;;19.20;14.35;;;1.90;99.90;;;;;;5118720;27;20215;-77
2024/01/05 00:52:56;;;;;;;23.17;14.50;;;1.90;99.90;;;;;;5120456;28;20035;-76
2024/01/05 00:55:23;;;;;;;20.80;14.80;;;1.90;99.90;;;;;;5106360;28;20082;-76
2024/01/05 00:57:50;;;;;;;24.95;14.82;;;1.90;99.90;;;;;;5134698;27;20489;-78
2024/01/05 01:00:16;;;;;;;21.10;14.65;;;1.90;99.90;;;;;;5109961;27;20050;-77
2024/01/05 01:02:43;;;;;;;22.58;15.18;;;1.90;99.90;;;;;;5129108;27;20038;-77
2024/01/05 01:05:09;;;;;;;24.48;15.80;;;1.90;99.90;;;;;;5140221;27;20485;-77
2024/01/05 01:07:34;;;;;;;22.13;15.52;;;2.10;99.90;;;;;;5129639;27;20070;-77
2024/01/05 01:10:00;;;;;;;27.00;14.68;;;1.90;99.90;;;;;;5129997;27;20043;-76
2024/01/05 01:12:27;;;;;;;24.90;15.65;;;1.90;99.90;;;;;;5143260;27;20457;-78
2024/01/05 01:14:53;;;;;;;23.38;14.52;;;2.90;99.90;;;;;;5112543;28;20091;-76
2024/01/05 01:17:19;;;;;;;25.02;15.63;;;1.80;99.90;;;;;;5133305;27;20077;-76
2024/01/05 01:19:48;;;;;;;22.50;15.00;;;2.00;99.90;;;;;;5129949;27;20076;-76
2024/01/05 01:22:13;;;;;;;;;;;1.80;99.90;;;;;;5151261;27;20051;-76
2024/01/05 01:24:40;;;;;;;21.48;13.65;;;2.40;99.90;;;;;;5138536;27;19923;-76
2024/01/05 01:27:06;;;;;;;25.00;15.82;;;1.80;99.90;;;;;;5117172;28;20065;-77
2024/01/05 01:29:33;;;;;;;21.80;13.88;;;1.80;99.90;;;;;;5141949;27;20039;-76
2024/01/05 01:31:59;;;;;;;25.08;15.23;;;1.80;99.90;;;;;;5126041;27;20400;-76
2024/01/05 01:34:25;;;;;;;23.15;13.98;;;1.80;99.90;;;;;;5126951;27;20099;-76
2024/01/05 01:36:53;;;;;;;20.25;13.05;;;1.90;99.90;;;;;;5120234;27;20043;-77
2024/01/05 01:39:19;;;;;;;23.77;14.48;;;1.70;99.90;;;;;;5106313;27;20114;-77
2024/01/05 01:41:45;;;;;;;18.73;14.43;;;1.80;99.90;;;;;;5119858;27;20047;-77
2024/01/05 01:44:11;;;;;;;22.77;14.23;;;1.90;99.90;;;;;;5127073;27;20092;-76
2024/01/05 01:46:37;;;;;;;19.58;13.02;;;3.10;99.90;;;;;;5106151;27;20478;-76
2024/01/05 01:49:04;;;;;;;21.52;13.93;;;1.80;99.90;;;;;;5113943;27;20545;-76
2024/01/05 01:51:31;;;;;;;17.35;12.32;;;1.80;99.90;;;;;;5135795;27;20367;-76
2024/01/05 01:54:04;;;;;;;21.73;12.10;;;1.80;99.90;;;;;;5115536;27;20058;-76
2024/01/05 01:56:31;;;;;;;20.52;13.02;;;1.80;99.90;;;;;;5117767;28;20118;-76
2024/01/05 01:58:57;;;;;;;21.13;12.77;;;1.80;99.90;;;;;;5113351;27;20075;-76
2024/01/05 02:01:23;;;;;;;18.95;12.70;;;1.80;99.90;;;;;;5131776;27;20042;-76
2024/01/05 02:03:49;;;;;;;22.77;13.80;;;1.80;99.90;;;;;;5105829;28;20050;-76
2024/01/05 02:06:14;;;;;;;19.35;13.00;;;1.80;99.90;;;;;;5098758;27;20075;-77
2024/01/05 02:08:40;;;;;;;23.35;13.35;;;1.80;99.90;;;;;;5124693;27;20067;-76
2024/01/05 02:11:09;;;;;;;18.52;12.95;;;2.90;99.90;;;;;;5120894;27;20050;-75
2024/01/05 02:13:34;;;;;;;23.02;13.45;;;3.10;99.90;;;;;;5126641;27;20548;-77
2024/01/05 02:16:00;;;;;;;24.00;13.77;;;3.10;99.90;;;;;;5119874;27;20138;-76
2024/01/05 02:18:29;;;;;;;25.02;14.05;;;2.80;99.90;;;;;;5127578;27;20408;-76
2024/01/05 02:21:01;;;;;;;22.80;14.20;;;2.50;99.90;;;;;;5106462;28;20511;-76
2024/01/05 02:23:27;;;;;;;24.85;14.18;;;2.40;99.90;;;;;;5104830;27;20058;-76
2024/01/05 02:25:57;;;;;;;27.38;14.18;;;1.80;99.90;;;;;;5120285;27;20405;-76
2024/01/05 02:28:23;;;;;;;27.67;14.90;;;1.80;99.90;;;;;;5135737;27;20043;-76
2024/01/05 02:30:49;;;;;;;23.20;13.85;;;1.90;99.90;;;;;;5129080;27;20027;-76
2024/01/05 02:33:18;;;;;;;23.70;14.88;;;1.80;99.90;;;;;;5106113;28;20112;-77
2024/01/05 02:35:45;;;;;;;24.55;14.65;;;1.80;99.90;;;;;;5142024;27;20043;-76
2024/01/05 02:38:11;;;;;;;26.38;15.23;;;1.80;99.90;;;;;;5121942;27;20043;-77
2024/01/05 02:40:39;;;;;;;29.35;15.10;;;1.80;99.90;;;;;;5116258;27;20501;-76
2024/01/05 02:43:05;;;;;;;;;;;2.40;99.90;;;;;;5124115;27;20099;-77
2024/01/05 02:45:32;;;;;;;23.65;13.77;;;1.80;99.90;;;;;;5138580;27;20384;-76
2024/01/05 02:47:58;;;;;;;27.30;15.00;;;1.80;99.90;;;;;;5125828;27;20078;-76
2024/01/05 02:50:23;;;;;;;31.88;15.82;;;1.80;99.90;;;;;;5134513;27;20043;-77
2024/01/05 02:52:49;;;;;;;28.95;15.65;;;1.80;99.90;;;;;;5122505;27;20047;-78
2024/01/05 02:55:15;;;;;;;25.63;15.45;;;1.80;99.90;;;;;;5125328;27;20315;-77
2024/01/05 02:57:42;;;;;;;27.67;16.20;;;1.70;99.90;;;;;;5138267;27;20077;-77
2024/01/05 03:00:08;;;;;;;31.10;16.20;;;1.80;99.90;;;;;;5128046;27;20401;-77
2024/01/05 03:02:34;;;;;;;31.13;15.98;;;1.70;99.90;;;;;;5126611;27;20179;-77
2024/01/05 03:05:00;;;;;;;30.45;16.90;;;1.70;99.90;;;;;;5148860;27;20103;-76
2024/01/05 03:07:26;;;;;;;27.88;17.55;;;1.70;99.90;;;;;;5126553;27;20032;-76
2024/01/05 03:09:52;;;;;;;29.25;17.17;;;1.70;99.90;;;;;;5124146;27;20350;-76
2024/01/05 03:12:18;;;;;;;27.75;16.27;;;1.70;99.90;;;;;;5111795;27;20051;-76
2024/01/05 03:14:44;;;;;;;30.77;17.10;;;1.70;99.90;;;;;;5139024;27;20427;-75
2024/01/05 03:17:10;;;;;;;33.70;17.08;;;1.70;99.90;;;;;;5135499;27;20035;-75
2024/01/05 03:19:36;;;;;;;31.77;17.67;;;1.60;99.90;;;;;;5151564;27;20066;-75
2024/01/05 03:22:07;;;;;;;33.35;17.33;;;1.60;99.90;;;;;;5126064;27;20034;-74
2024/01/05 03:24:34;;;;;;;;;;;1.60;99.90;;;;;;5156765;27;20042;-75
2024/01/05 03:26:59;;;;;;;36.88;17.15;;;1.60;99.90;;;;;;5145006;27;20009;-75
2024/01/05 03:29:25;;;;;;;31.10;17.67;;;1.70;99.90;;;;;;5146171;27;20469;-75
2024/01/05 03:31:51;;;;;;;33.45;19.60;;;1.70;99.90;;;;;;5104402;27;20474;-74
2024/01/05 03:34:17;;;;;;;37.92;17.85;;;2.00;99.90;;;;;;5122243;27;20156;-75
2024/01/05 03:36:43;;;;;;;32.33;16.75;;;1.70;99.90;;;;;;5124347;27;20027;-76
2024/01/05 03:39:09;;;;;;;33.88;17.70;;;2.00;99.90;;;;;;5139146;27;20046;-76
2024/01/05 03:41:36;;;;;;;33.00;18.70;;;1.70;99.90;;;;;;5108940;27;20038;-77
2024/01/05 03:44:02;;;;;;;34.45;17.17;;;1.70;99.90;;;;;;5116145;27;20366;-76
2024/01/05 03:46:28;;;;;;;31.58;18.85;;;1.80;99.90;;;;;;5132602;27;20095;-76
2024/01/05 03:48:54;;;;;;;40.45;18.98;;;1.70;99.90;;;;;;5146117;27;20047;-76
2024/01/05 03:51:19;;;;;;;33.40;18.50;;;1.70;99.90;;;;;;5145298;28;20039;-76
2024/01/05 03:53:45;;;;;;;38.08;17.95;;;1.70;99.90;;;;;;5159498;27;20184;-75
2024/01/05 03:56:11;;;;;;;33.55;18.13;;;1.70;99.90;;;;;;5145918;27;20040;-76
2024/01/05 03:58:38;;;;;;;37.72;19.33;;;1.70;99.90;;;;;;5123296;27;20031;-76
2024/01/05 04:01:04;;;;;;;32.70;18.17;;;1.70;99.90;;;;;;5146657;27;20496;-77
2024/01/05 04:03:30;;;;;;;38.58;19.83;;;1.70;99.90;;;;;;5153529;27;20034;-77
2024/01/05 04:05:56;;;;;;;37.67;18.50;;;1.70;99.90;;;;;;5125257;27;20071;-76
2024/01/05 04:08:22;;;;;;;38.83;19.45;;;1.70;99.90;;;;;;5136163;27;20046;-77
2024/01/05 04:10:48;;;;;;;33.70;19.20;;;1.80;99.90;;;;;;5126477;28;20046;-76
2024/01/05 04:13:14;;;;;;;37.13;20.35;;;2.10;99.90;;;;;;5137389;27;20039;-77
2024/01/05 04:15:40;;;;;;;40.22;17.55;;;1.70;99.90;;;;;;5121863;28;20047;-77
2024/01/05 04:18:08;;;;;;;32.75;19.25;;;1.80;99.90;;;;;;5134206;27;20058;-76
2024/01/05 04:20:34;;;;;;;38.45;19.83;;;1.80;99.90;;;;;;5143691;27;20027;-77
2024/01/05 04:23:00;;;;;;;36.85;20.17;;;1.70;99.90;;;;;;5141308;27;20039;-78
2024/01/05 04:25:26;;;;;;;33.33;19.67;;;1.60;99.90;;;;;;5127180;27;20088;-78
2024/01/05 04:27:52;;;;;;;36.85;17.77;;;1.70;99.90;;;;;;5122280;27;20051;-78
2024/01/05 04:30:20;;;;;;;39.38;20.75;;;1.70;99.90;;;;;;5129778;27;20442;-78
2024/01/05 04:32:47;;;;;;;37.22;19.33;;;1.80;99.90;;;;;;5147886;27;20104;-77
2024/01/05 04:35:13;;;;;;;44.25;21.85;;;1.60;99.90;;;;;;5110739;27;20043;-78
2024/01/05 04:37:39;;;;;;;37.95;20.13;;;3.00;99.90;;;;;;5147510;27;20087;-77
2024/01/05 04:40:10;;;;;;;33.15;17.95;;;1.70;99.90;;;;;;5160482;27;20031;-78
2024/01/05 04:42:36;;;;;;;35.00;19.05;;;1.70;99.90;;;;;;5154423;27;20038;-78
2024/01/05 04:45:05;;;;;;;38.20;19.13;;;1.60;99.90;;;;;;5157865;27;20037;-80
2024/01/05 04:47:31;;;;;;;41.92;20.70;;;1.80;99.90;;;;;;5126013;27;20042;-79
2024/01/05 04:50:00;;;;;;;44.92;21.02;;;1.70;99.90;;;;;;5139252;27;20047;-79
2024/01/05 04:52:25;;;;;;;38.40;19.80;;;2.10;99.90;;;;;;5124926;27;20031;-78
2024/01/05 04:54:51;;;;;;;47.10;20.55;;;1.80;99.90;;;;;;5131632;27;20043;-77
2024/01/05 04:57:17;;;;;;;43.58;22.17;;;1.70;99.90;;;;;;5144124;27;20039;-77
2024/01/05 04:59:43;;;;;;;44.45;20.08;;;1.40;99.90;;;;;;5133445;27;20439;-78
2024/01/05 05:02:08;;;;;;;43.42;20.35;;;1.80;99.90;;;;;;5115749;27;20042;-79
2024/01/05 05:04:34;;;;;;;40.67;18.38;;;1.80;99.90;;;;;;5147220;27;20031;-78
2024/01/05 05:07:00;;;;;;;42.40;21.55;;;1.80;99.90;;;;;;5135127;27;20038;-80
2024/01/05 05:09:25;;;;;;;45.30;20.33;;;1.70;99.90;;;;;;5127325;27;20083;-79
2024/01/05 05:11:51;;;;;;;38.85;18.83;;;1.80;99.90;;;;;;5148931;27;20043;-79
2024/01/05 05:14:17;;;;;;;36.35;18.98;;;1.80;99.90;;;;;;5117818;27;20035;-80
2024/01/05 05:16:43;;;;;;;45.17;21.67;;;1.80;99.90;;;;;;5130758;27;20069;-81
2024/01/05 05:19:08;;;;;;;41.72;21.42;;;1.70;99.90;;;;;;5117121;27;20058;-79
2024/01/05 05:21:34;;;;;;;44.13;20.67;;;1.80;99.90;;;;;;5144158;27;20046;-78
2024/01/05 05:24:00;;;;;;;44.42;20.27;;;1.70;99.90;;;;;;5152802;27;20048;-78
2024/01/05 05:26:25;;;;;;;44.97;20.33;;;1.80;99.90;;;;;;5192809;27;20034;-79
2024/01/05 05:28:51;;;;;;;41.45;19.20;;;2.00;99.90;;;;;;5154409;27;20030;-78
2024/01/05 05:31:17;;;;;;;45.58;20.95;;;1.80;99.90;;;;;;5154009;27;20035;-78
2024/01/05 05:33:43;;;;;;;38.83;19.48;;;1.70;99.90;;;;;;5117962;27;20039;-77
2024/01/05 05:36:08;;;;;;;46.97;22.27;;;1.70;99.90;;;;;;5137629;27;20061;-77
2024/01/05 05:38:34;;;;;;;41.40;20.42;;;1.80;99.90;;;;;;5130671;27;20046;-77
2024/01/05 05:41:00;;;;;;;37.25;19.08;;;1.80;99.90;;;;;;5131664;27;20039;-77
2024/01/05 05:43:25;;;;;;;47.40;21.38;;;1.90;99.90;;;;;;5121518;27;20130;-77
2024/01/05 05:45:51;;;;;;;41.17;20.73;;;2.20;99.90;;;;;;5134223;27;20079;-77
2024/01/05 05:48:17;;;;;;;40.15;19.38;;;1.90;99.90;;;;;;5167792;27;20046;-78
2024/01/05 05:50:42;;;;;;;38.10;17.60;;;1.90;99.90;;;;;;5129731;27;20133;-77
2024/01/05 05:53:09;;;;;;;36.95;20.17;;;1.90;99.90;;;;;;5116462;27;20035;-79
2024/01/05 05:55:35;;;;;;;40.20;19.73;;;2.10;99.90;;;;;;5153847;27;20042;-77
2024/01/05 05:58:01;;;;;;;34.10;18.65;;;2.00;99.90;;;;;;5143263;27;20107;-78
2024/01/05 06:00:27;;;;;;;37.50;20.10;;;2.10;99.90;;;;;;5136909;27;20027;-78
2024/01/05 06:02:52;;;;;;;40.92;20.25;;;1.90;99.90;;;;;;5126949;27;20066;-78
2024/01/05 06:05:18;;;;;;;41.58;20.52;;;1.90;99.90;;;;;;5130956;27;20095;-78
2024/01/05 06:07:44;;;;;;;36.90;19.40;;;2.90;99.90;;;;;;5156767;27;20047;-78
2024/01/05 06:10:10;;;;;;;37.17;19.77;;;1.90;99.90;;;;;;5154055;27;20129;-78
2024/01/05 06:12:38;;;;;;;40.38;21.63;;;2.00;99.90;;;;;;5137033;27;20035;-79
2024/01/05 06:15:04;;;;;;;38.67;19.50;;;2.10;99.90;;;;;;5155421;27;20031;-78
2024/01/05 06:17:30;;;;;;;33.55;19.02;;;2.00;99.90;;;;;;5164005;27;20373;-78
2024/01/05 06:19:55;;;;;;;37.03;19.77;;;2.00;99.90;;;;;;5146249;27;20103;-79
2024/01/05 06:22:21;;;;;;;33.53;18.98;;;2.30;99.90;;;;;;5155398;27;20445;-78
2024/01/05 06:24:47;;;;;;;32.35;18.25;;;2.10;99.90;;;;;;5134826;27;20059;-78
2024/01/05 06:27:16;;;;;;;38.63;19.25;;;2.00;99.90;;;;;;5118581;27;20111;-78
2024/01/05 06:29:42;;;;;;;34.05;19.27;;;2.00;99.90;;;;;;5133163;27;20047;-78
2024/01/05 06:32:09;;;;;;;36.80;19.88;;;2.00;99.90;;;;;;5118446;27;20045;-77
2024/01/05 06:34:35;;;;;;;34.28;19.85;;;2.00;99.90;;;;;;5133799;27;20060;-77
2024/01/05 06:37:00;;;;;;;34.22;20.05;;;2.10;99.90;;;;;;5128841;27;20038;-78
2024/01/05 06:39:26;;;;;;;36.75;20.65;;;2.20;99.90;;;;;;5140508;27;20405;-77
2024/01/05 06:41:52;;;;;;;34.00;19.15;;;2.00;99.90;;;;;;5129295;27;20098;-77
2024/01/05 06:44:17;;;;;;;39.45;20.63;;;2.10;99.90;;;;;;5121846;27;20061;-77
2024/01/05 06:46:43;;;;;;;36.35;19.65;;;2.00;99.90;;;;;;5122824;27;20043;-77
2024/01/05 06:49:09;;;;;;;34.35;20.20;;;2.10;99.90;;;;;;5149159;27;20167;-77
2024/01/05 06:51:39;;;;;;;45.38;22.88;;;2.10;99.90;;;;;;5144980;27;20399;-77
2024/01/05 06:54:08;;;;;;;41.63;21.60;;;2.00;99.90;;;;;;5116010;27;20103;-77
2024/01/05 06:56:34;;;;;;;35.00;19.95;;;2.20;99.90;;;;;;5135339;27;20135;-77
2024/01/05 06:59:04;;;;;;;35.50;20.67;;;2.20;99.90;;;;;;5121018;27;20496;-78
2024/01/05 07:01:31;;;;;;;34.90;20.10;;;2.20;99.90;;;;;;5115126;27;20043;-77
2024/01/05 07:03:57;;;;;;;32.53;19.65;;;2.20;99.90;;;;;;5125703;27;20066;-77
2024/01/05 07:06:23;;;;;;;37.30;20.48;;;2.20;99.90;;;;;;5150155;27;20039;-76
2024/01/05 07:08:48;;;;;;;30.75;19.08;;;2.10;99.90;;;;;;5136523;27;20034;-78
2024/01/05 07:11:23;;;;;;;31.25;19.00;;;2.20;99.90;;;;;;5128210;27;20099;-77
2024/01/05 07:13:50;;;;;;;32.55;19.10;;;2.30;99.90;;;;;;5118390;27;20046;-78
2024/01/05 07:16:20;;;;;;;36.40;19.63;;;2.20;99.90;;;;;;5117113;27;20106;-78
2024/01/05 07:18:46;;;;;;;38.90;20.13;;;2.20;99.90;;;;;;5139678;27;20098;-78
2024/01/05 07:21:16;;;;;;;31.42;18.63;;;2.20;99.90;;;;;;5159236;27;20042;-80
2024/01/05 07:23:42;;;;;;;33.20;19.60;;;2.60;99.90;;;;;;5136667;27;20114;-79
2024/01/05 07:26:12;;;;;;;31.67;18.75;;;2.50;99.90;;;;;;5153222;27;20061;-80
2024/01/05 07:28:43;;;;;;;32.90;18.88;;;2.20;99.90;;;;;;5113576;27;20035;-79
2024/01/05 07:31:09;;;;;;;32.67;19.08;;;2.50;99.90;;;;;;5141157;27;20039;-79
2024/01/05 07:33:35;;;;;;;35.25;19.33;;;2.30;99.90;;;;;;5155816;27;20034;-78
2024/01/05 07:36:04;;;;;;;37.85;21.42;;;2.40;99.90;;;;;;5125133;27;20111;-78
2024/01/05 07:38:34;;;;;;;46.05;22.42;;;2.30;99.90;;;;;;5125750;27;20047;-78
2024/01/05 07:41:00;;;;;;;32.83;20.77;;;2.40;99.90;;;;;;5143452;27;20099;-78
2024/01/05 07:43:27;;;;;;;39.72;21.80;;;2.30;99.90;;;;;;5123146;27;20081;-77
2024/01/05 07:45:54;;;;;;;41.47;22.30;;;2.30;99.90;;;;;;5139303;27;20130;-78
2024/01/05 07:48:20;;;;;;;42.72;22.15;;;2.40;99.90;;;;;;5122118;27;20051;-78
2024/01/05 07:50:49;;;;;;;38.92;22.00;;;2.30;99.90;;;;;;5103081;28;20043;-77
2024/01/05 07:53:15;;;;;;;41.70;22.50;;;2.30;99.90;;;;;;5112881;28;20036;-79
2024/01/05 07:55:41;;;;;;;42.00;22.58;;;2.80;99.90;;;;;;5127503;27;20095;-78
2024/01/05 07:58:07;;;;;;;45.47;22.42;;;2.40;99.90;;;;;;5146665;27;20515;-80
2024/01/05 08:00:34;;;;;;;37.22;21.65;;;2.50;99.90;;;;;;5117140;27;20043;-78
2024/01/05 08:03:03;;;;;;;38.42;21.55;;;3.70;99.90;;;;;;5117046;27;20058;-78
2024/01/05 08:05:32;;;;;;;39.33;21.77;;;2.50;99.90;;;;;;5125741;27;20043;-78
2024/01/05 08:07:57;;;;;;;44.10;22.85;;;2.40;99.90;;;;;;5154915;27;20045;-79
2024/01/05 08:10:23;;;;;;;44.05;23.40;;;2.40;99.90;;;;;;5136786;27;20121;-77
2024/01/05 08:12:49;;;;;;;44.97;24.42;;;2.40;99.90;;;;;;5126027;27;20043;-77
2024/01/05 08:15:14;;;;;;;42.15;23.20;;;2.40;99.90;;;;;;5107389;27;20047;-78
2024/01/05 08:17:40;;;;;;;46.72;25.42;;;2.50;99.90;;;;;;5142572;27;20055;-78
2024/01/05 08:20:07;;;;;;;47.13;25.27;;;2.60;99.90;;;;;;5128105;27;20041;-78
2024/01/05 08:22:34;;;;;;;48.78;27.40;;;2.50;99.90;;;;;;5130706;27;20540;-78
2024/01/05 08:25:00;;;;;;;52.03;27.83;;;2.50;99.90;;;;;;5115743;27;20105;-79
2024/01/05 08:27:25;;;;;;;47.63;26.23;;;2.50;99.90;;;;;;5132493;27;20488;-77
2024/01/05 08:29:51;;;;;;;50.92;27.42;;;2.60;99.90;;;;;;5111669;27;20031;-79
2024/01/05 08:32:17;;;;;;;53.97;27.83;;;2.60;99.90;;;;;;5140514;27;20054;-77
2024/01/05 08:34:42;;;;;;;50.50;27.13;;;2.50;99.90;;;;;;5146298;27;20058;-78
2024/01/05 08:37:08;;;;;;;58.83;28.80;;;2.50;99.90;;;;;;5143305;27;20129;-77
2024/01/05 08:39:34;;;;;;;53.45;28.52;;;2.60;99.90;;;;;;5136072;27;20039;-78
2024/01/05 08:42:00;;;;;;;60.00;29.95;;;2.50;99.90;;;;;;5120649;27;20129;-77
2024/01/05 08:44:25;;;;;;;57.25;29.20;;;2.70;99.90;;;;;;5149342;27;20415;-77
2024/01/05 08:46:54;;;;;;;49.85;27.15;;;2.60;99.90;;;;;;5121283;27;20047;-77
2024/01/05 08:49:20;;;;;;;53.92;29.60;;;2.70;99.90;;;;;;5146392;27;20451;-76
2024/01/05 08:51:46;;;;;;;58.63;30.27;;;2.70;99.90;;;;;;5152687;27;20050;-77
2024/01/05 08:54:14;;;;;;;58.05;29.65;;;2.70;99.90;;;;;;5114026;27;20071;-77
2024/01/05 08:56:40;;;;;;;61.75;29.65;;;2.70;99.90;;;;;;5150625;27;20046;-78
2024/01/05 08:59:07;;;;;;;53.63;28.83;;;3.40;99.90;;;;;;5158186;27;20035;-77
2024/01/05 09:01:33;;;;;;;53.58;29.73;;;2.70;99.90;;;;;;5108353;27;20048;-77
2024/01/05 09:03:59;;;;;;;60.92;30.02;;;2.70;99.90;;;;;;5137842;27;20039;-78
2024/01/05 09:06:25;;;;;;;51.50;28.17;;;2.70;99.90;;;;;;5131396;27;20038;-78
2024/01/05 09:08:51;;;;;;;60.25;30.85;;;2.80;99.90;;;;;;5146447;27;20078;-79
2024/01/05 09:11:16;;;;;;;64.35;31.83;;;2.70;99.90;;;;;;5147905;27;20098;-81
2024/01/05 09:13:42;;;;;;;62.03;29.00;;;2.70;99.90;;;;;;5133150;27;20047;-80
2024/01/05 09:16:08;;;;;;;66.25;31.10;;;2.70;99.90;;;;;;5162460;27;20038;-81
2024/01/05 09:18:35;;;;;;;58.17;28.95;;;2.80;99.90;;;;;;5167889;27;20042;-80
2024/01/05 09:21:02;;;;;;;56.80;28.48;;;2.90;99.90;;;;;;5162725;27;20050;-79
2024/01/05 09:23:28;;;;;;;63.35;29.02;;;2.80;99.90;;;;;;5171401;27;20065;-78
2024/01/05 09:25:53;;;;;;;43.72;25.02;;;2.80;99.90;;;;;;5166373;27;20038;-79
2024/01/05 09:28:19;;;;;;;51.40;25.55;;;2.70;99.90;;;;;;5161978;27;20049;-77
2024/01/05 09:30:45;;;;;;;61.47;27.35;;;2.80;99.90;;;;;;5146244;27;20613;-78
2024/01/05 09:33:12;;;;;;;55.05;27.50;;;2.90;99.90;;;;;;5146343;27;20035;-77
2024/01/05 09:35:38;;;;;;;47.22;25.90;;;2.80;99.90;;;;;;5140189;27;20035;-78
2024/01/05 09:38:08;;;;;;;50.58;25.77;;;2.80;99.90;;;;;;5129958;27;20071;-78
2024/01/05 09:40:34;;;;;;;51.40;25.53;;;3.00;99.90;;;;;;5145017;27;20050;-78
2024/01/05 09:43:02;;;;;;;55.88;26.85;;;3.00;99.90;;;;;;5144936;27;20042;-77
2024/01/05 09:45:29;;;;;;;54.20;26.17;;;3.20;99.90;;;;;;5143216;27;20171;-78
2024/01/05 09:47:57;;;;;;;47.90;25.20;;;2.90;99.90;;;;;;5119689;27;20043;-78
2024/01/05 09:50:24;;;;;;;57.05;26.70;;;3.10;99.90;;;;;;5150336;27;20163;-77
2024/01/05 09:52:51;;;;;;;41.78;22.73;;;3.10;99.90;;;;;;5139557;27;20031;-77
2024/01/05 09:55:18;;;;;;;52.90;25.40;;;3.10;99.90;;;;;;5130764;27;20051;-76
2024/01/05 09:57:48;;;;;;;53.05;24.38;;;3.10;99.90;;;;;;5151731;27;20042;-77
2024/01/05 10:00:15;;;;;;;52.25;24.95;;;3.00;99.90;;;;;;5120926;27;20058;-76
2024/01/05 10:02:45;;;;;;;55.13;25.17;;;3.10;99.90;;;;;;5146798;27;20461;-78
2024/01/05 10:05:11;;;;;;;52.33;25.17;;;3.00;99.90;;;;;;5120793;27;20477;-77
2024/01/05 10:07:44;;;;;;;44.90;23.25;;;3.10;99.90;;;;;;5140427;27;20090;-78
2024/01/05 10:10:12;;;;;;;43.00;22.77;;;3.20;99.90;;;;;;5156592;27;20049;-78
2024/01/05 10:12:41;;;;;;;54.75;25.35;;;3.10;99.90;;;;;;5164105;27;20035;-77
2024/01/05 10:15:08;;;;;;;56.42;25.45;;;3.30;99.90;;;;;;5142178;27;20445;-78
2024/01/05 10:17:34;;;;;;;51.38;25.30;;;3.20;99.90;;;;;;5116017;27;20058;-78
2024/01/05 10:20:14;;;;;;;52.60;25.67;;;3.10;99.90;;;;;;5153589;27;20035;-78
2024/01/05 10:22:41;;;;;;;65.20;28.05;;;3.20;99.90;;;;;;5127003;27;20700;-78
2024/01/05 10:25:18;;;;;;;56.83;26.77;;;3.20;99.90;;;;;;5168359;27;20050;-79
2024/01/05 10:27:47;;;;;;;60.70;28.17;;;3.40;99.90;;;;;;5116232;27;20039;-78
2024/01/05 10:30:28;;;;;;;65.72;29.27;;;3.30;99.90;;;;;;5109087;27;20070;-78
2024/01/05 10:33:07;;;;;;;55.42;26.88;;;3.40;99.90;;;;;;5127511;27;20054;-78
2024/01/05 10:35:35;;;;;;;60.03;27.73;;;3.30;99.90;;;;;;5105289;27;20039;-78
2024/01/05 10:38:11;;;;;;;62.95;29.55;;;3.50;99.90;;;;;;5121952;27;20057;-78
2024/01/05 10:40:37;;;;;;;58.97;28.90;;;3.50;99.90;;;;;;5107703;27;20104;-79
2024/01/05 10:43:11;;;;;;;69.78;31.80;;;2.80;99.90;;;;;;5113219;27;20047;-78
2024/01/05 10:45:38;;;;;;;65.03;29.42;;;3.40;99.90;;;;;;5139892;27;20523;-79
2024/01/05 10:48:09;;;;;;;74.80;35.73;;;3.40;99.90;;;;;;5160678;27;20051;-78
2024/01/05 10:50:37;;;;;;;56.40;28.70;;;3.60;99.90;;;;;;5128013;27;20035;-79
2024/01/05 10:53:08;;;;;;;63.35;29.17;;;3.90;99.90;;;;;;5129476;27;20456;-78
2024/01/05 10:55:36;;;;;;;;;;;3.70;99.90;;;;;;5116452;27;20031;-78
2024/01/05 10:58:01;;;;;;;58.03;27.52;;;3.60;99.90;;;;;;5105195;27;19919;-77
2024/01/05 11:00:28;;;;;;;58.22;28.35;;;3.70;99.90;;;;;;5124222;27;20457;-77
2024/01/05 11:03:10;;;;;;;55.30;26.80;;;3.60;99.90;;;;;;5106713;27;20039;-77
2024/01/05 11:05:42;;;;;;;60.38;27.05;;;3.80;99.90;;;;;;5100761;27;20042;-78
2024/01/05 11:08:31;;;;;;;51.63;25.67;;;3.60;99.90;;;;;;5150463;27;20050;-78
2024/01/05 11:11:11;;;;;;;59.22;27.73;;;3.70;99.90;;;;;;5142096;27;20131;-78
2024/01/05 11:14:06;;;;;;;57.13;26.33;;;3.80;99.90;;;;;;5124503;27;20469;-77
2024/01/05 11:16:55;;;;;;;47.95;23.67;;;3.90;99.90;;;;;;5063485;27;20050;-79
2024/01/05 11:19:38;;;;;;;52.45;25.15;;;3.90;99.90;;;;;;5156600;27;20504;-78
2024/01/05 11:22:08;;;;;;;47.20;23.10;;;3.80;99.90;;;;;;5124275;27;20062;-76
2024/01/05 11:24:36;;;;;;;36.97;22.13;;;4.00;99.90;;;;;;5132998;27;20047;-77
2024/01/05 11:27:22;;;;;;;;;;;4.00;99.90;;;;;;5126664;27;20040;-78
2024/01/05 11:29:50;;;;;;;50.63;25.08;;;3.80;99.90;;;;;;5134797;27;19919;-76
2024/01/05 11:32:34;;;;;;;60.88;27.08;;;3.90;99.90;;;;;;5104918;27;20027;-77
2024/01/05 11:35:02;;;;;;;48.47;24.35;;;4.00;99.90;;;;;;5131063;27;20046;-77
2024/01/05 11:37:31;;;;;;;49.58;25.00;;;3.80;99.90;;;;;;5117922;27;20512;-77
2024/01/05 11:40:01;;;;;;;44.00;24.35;;;3.90;99.90;;;;;;5151217;27;20495;-77
2024/01/05 11:42:33;;;;;;;46.10;24.58;;;4.00;99.90;;;;;;5125474;27;20042;-77
2024/01/05 11:45:11;;;;;;;56.95;26.85;;;3.80;99.90;;;;;;5107752;27;20035;-78
2024/01/05 11:47:47;;;;;;;65.35;28.40;;;3.90;99.90;;;;;;5151143;27;20046;-77
2024/01/05 11:50:34;;;;;;;57.13;25.92;;;4.00;99.90;;;;;;5108367;27;20043;-78
2024/01/05 11:53:24;;;;;;;58.08;27.45;;;4.00;99.90;;;;;;5127579;27;20068;-78
2024/01/05 11:55:52;;;;;;;59.40;28.95;;;4.00;99.90;;;;;;5153070;27;20039;-78
2024/01/05 11:58:25;;;;;;;56.88;29.42;;;3.90;99.90;;;;;;5144706;27;20126;-79
2024/01/05 12:00:53;;;;;;;59.58;29.08;;;3.90;99.90;;;;;;5137198;27;20215;-78
2024/01/05 12:03:21;;;;;;;65.85;29.42;;;4.10;99.90;;;;;;5154314;27;20399;-78
2024/01/05 12:05:50;;;;;;;65.35;29.83;;;4.10;99.90;;;;;;5154678;27;20054;-78
2024/01/05 12:08:16;;;;;;;53.90;28.00;;;3.90;99.90;;;;;;5144273;27;20043;-78
2024/01/05 12:10:42;;;;;;;47.33;26.42;;;3.90;99.90;;;;;;5128594;27;20433;-77
2024/01/05 12:13:08;;;;;;;55.05;27.25;;;4.00;99.90;;;;;;5154147;27;20041;-78
2024/01/05 12:15:34;;;;;;;46.03;24.65;;;4.10;99.90;;;;;;5121189;27;20070;-79
2024/01/05 12:18:10;;;;;;;59.80;25.95;;;3.90;99.90;;;;;;5117382;27;20047;-77
2024/01/05 12:20:37;;;;;;;45.05;23.15;;;3.90;99.90;;;;;;5115435;28;20039;-78
2024/01/05 12:23:03;;;;;;;49.00;24.70;;;4.50;99.90;;;;;;5113644;28;20050;-77
2024/01/05 12:25:30;;;;;;;47.78;24.35;;;4.00;99.90;;;;;;5144527;27;20586;-77
2024/01/05 12:27:58;;;;;;;46.05;23.70;;;4.70;99.90;;;;;;5102755;28;20471;-78
2024/01/05 12:30:27;;;;;;;54.10;24.55;;;4.50;99.90;;;;;;5112446;27;20035;-79
2024/01/05 12:32:53;;;;;;;42.80;22.48;;;5.30;99.90;;;;;;5131636;27;20046;-78
2024/01/05 12:35:19;;;;;;;60.20;26.42;;;4.00;99.90;;;;;;5137699;27;20031;-79
2024/01/05 12:37:53;;;;;;;43.28;22.92;;;5.50;99.90;;;;;;5124731;27;20050;-78
2024/01/05 12:40:26;;;;;;;37.72;20.75;;;4.10;99.90;;;;;;5137503;27;20442;-79